createdAt,value
2017-11-22T00:00:13.397Z,4.00
2017-11-22T00:01:19.993Z,4.00
2017-11-22T00:02:25.734Z,4.00
2017-11-22T00:03:31.877Z,4.00
2017-11-22T00:04:37.600Z,4.00
2017-11-22T00:05:43.846Z,4.00
2017-11-22T00:06:50.550Z,4.00
2017-11-22T00:07:56.867Z,4.00
2017-11-22T00:09:02.497Z,4.00
2017-11-22T00:10:08.684Z,4.00
2017-11-22T00:11:14.939Z,4.00
2017-11-22T00:12:21.051Z,4.00
2017-11-22T00:13:27.759Z,4.00
2017-11-22T00:14:34.035Z,4.00
2017-11-22T00:15:40.339Z,4.00
2017-11-22T00:16:45.913Z,4.00
2017-11-22T00:17:52.256Z,4.00
2017-11-22T00:18:58.435Z,4.00
2017-11-22T00:20:04.632Z,4.00
2017-11-22T00:21:10.726Z,4.00
2017-11-22T00:22:16.933Z,4.00
2017-11-22T00:23:23.222Z,4.00
2017-11-22T00:24:29.457Z,4.00
2017-11-22T00:25:36.205Z,4.00
2017-11-22T00:26:42.358Z,4.00
2017-11-22T00:27:48.028Z,4.00
2017-11-22T00:28:55.096Z,4.00
2017-11-22T00:30:00.488Z,4.00
2017-11-22T00:31:06.629Z,4.00
2017-11-22T00:32:13.376Z,4.00
2017-11-22T00:33:19.049Z,4.00
2017-11-22T00:34:25.530Z,4.00
2017-11-22T00:35:32.077Z,4.00
2017-11-22T00:36:37.688Z,4.00
2017-11-22T00:37:43.883Z,4.00
2017-11-22T00:38:50.677Z,4.00
2017-11-22T00:39:56.306Z,4.00
2017-11-22T00:41:02.561Z,4.00
2017-11-22T00:42:08.817Z,4.00
2017-11-22T00:43:15.547Z,4.00
2017-11-22T00:44:21.230Z,4.00
2017-11-22T00:45:27.383Z,4.00
2017-11-22T00:46:33.616Z,4.00
2017-11-22T00:47:40.872Z,4.00
2017-11-22T00:48:46.012Z,4.00
2017-11-22T00:49:52.700Z,4.00
2017-11-22T00:50:58.434Z,4.00
2017-11-22T00:52:04.618Z,4.00
2017-11-22T00:53:11.420Z,4.00
2017-11-22T00:54:17.270Z,4.00
2017-11-22T00:55:23.448Z,4.00
2017-11-22T00:56:30.011Z,4.00
2017-11-22T00:57:35.665Z,4.00
2017-11-22T00:58:42.492Z,4.00
2017-11-22T00:59:48.410Z,4.00
2017-11-22T01:00:54.350Z,4.00
2017-11-22T01:02:00.560Z,4.00
2017-11-22T01:03:06.813Z,4.00
2017-11-22T01:04:12.957Z,4.00
2017-11-22T01:05:19.288Z,4.00
2017-11-22T01:06:25.883Z,4.00
2017-11-22T01:07:32.207Z,4.00
2017-11-22T01:08:37.770Z,4.00
2017-11-22T01:09:43.999Z,4.00
2017-11-22T01:10:50.187Z,4.00
2017-11-22T01:11:56.938Z,4.00
2017-11-22T01:13:03.268Z,4.00
2017-11-22T01:14:09.438Z,4.00
2017-11-22T01:15:15.676Z,4.00
2017-11-22T01:16:21.348Z,4.00
2017-11-22T01:17:27.570Z,4.00
2017-11-22T01:18:33.822Z,4.00
2017-11-22T01:19:39.910Z,4.00
2017-11-22T01:20:46.665Z,4.00
2017-11-22T01:21:52.887Z,4.00
2017-11-22T01:22:59.140Z,4.00
2017-11-22T01:24:04.752Z,4.00
2017-11-22T01:25:11.508Z,4.00
2017-11-22T01:26:17.802Z,4.00
2017-11-22T01:27:23.373Z,4.00
2017-11-22T01:28:30.129Z,4.00
2017-11-22T01:29:36.303Z,4.00
2017-11-22T01:30:42.533Z,4.00
2017-11-22T01:31:48.275Z,4.00
2017-11-22T01:32:54.508Z,4.00
2017-11-22T01:34:01.159Z,4.00
2017-11-22T01:35:06.941Z,4.00
2017-11-22T01:36:13.088Z,4.00
2017-11-22T01:37:19.927Z,4.00
2017-11-22T01:38:25.466Z,4.00
2017-11-22T01:39:32.509Z,4.00
2017-11-22T01:40:37.990Z,4.00
2017-11-22T01:41:44.226Z,4.00
2017-11-22T01:42:50.332Z,4.00
2017-11-22T01:43:56.556Z,4.00
2017-11-22T01:45:02.742Z,4.00
2017-11-22T01:46:09.475Z,4.00
2017-11-22T01:47:15.223Z,4.00
2017-11-22T01:48:21.454Z,4.00
2017-11-22T01:49:27.637Z,4.00
2017-11-22T01:50:34.291Z,4.00
2017-11-22T01:51:40.025Z,3.99
2017-11-22T01:52:46.214Z,4.00
2017-11-22T01:53:52.426Z,4.00
2017-11-22T01:54:59.137Z,4.00
2017-11-22T01:56:04.841Z,4.00
2017-11-22T01:57:11.033Z,4.00
2017-11-22T01:58:17.757Z,4.00
2017-11-22T01:59:23.467Z,4.00
2017-11-22T02:00:30.261Z,4.00
2017-11-22T02:01:35.973Z,4.00
2017-11-22T02:02:42.156Z,4.00
2017-11-22T02:03:48.267Z,3.99
2017-11-22T02:04:55.604Z,4.00
2017-11-22T02:06:00.908Z,4.00
2017-11-22T02:07:07.554Z,4.00
2017-11-22T02:08:13.137Z,4.00
2017-11-22T02:09:19.904Z,4.00
2017-11-22T02:10:25.585Z,4.00
2017-11-22T02:11:32.353Z,4.00
2017-11-22T02:12:37.994Z,4.00
2017-11-22T02:13:44.690Z,4.00
2017-11-22T02:14:50.353Z,4.00
2017-11-22T02:15:56.541Z,4.00
2017-11-22T02:17:02.835Z,4.00
2017-11-22T02:18:08.951Z,4.00
2017-11-22T02:19:16.041Z,4.00
2017-11-22T02:20:21.368Z,4.00
2017-11-22T02:21:27.645Z,4.00
2017-11-22T02:22:34.302Z,4.00
2017-11-22T02:23:40.120Z,4.00
2017-11-22T02:24:46.236Z,3.99
2017-11-22T02:25:52.437Z,3.99
2017-11-22T02:26:59.218Z,4.00
2017-11-22T02:28:04.930Z,4.00
2017-11-22T02:29:11.651Z,4.00
2017-11-22T02:30:17.438Z,4.00
2017-11-22T02:31:23.512Z,4.00
2017-11-22T02:32:29.774Z,4.00
2017-11-22T02:33:36.430Z,4.00
2017-11-22T02:34:42.777Z,4.00
2017-11-22T02:35:48.410Z,3.99
2017-11-22T02:36:55.003Z,3.99
2017-11-22T02:38:00.742Z,3.99
2017-11-22T02:39:07.056Z,3.99
2017-11-22T02:40:13.340Z,3.99
2017-11-22T02:41:19.458Z,4.00
2017-11-22T02:42:25.568Z,4.00
2017-11-22T02:43:32.318Z,4.00
2017-11-22T02:44:37.975Z,3.99
2017-11-22T02:45:44.165Z,4.00
2017-11-22T02:46:50.857Z,4.00
2017-11-22T02:47:56.566Z,3.99
2017-11-22T02:49:03.442Z,3.99
2017-11-22T02:50:09.010Z,3.99
2017-11-22T02:51:15.192Z,3.99
2017-11-22T02:52:21.440Z,3.99
2017-11-22T02:53:29.704Z,3.99
2017-11-22T02:54:33.861Z,3.99
2017-11-22T02:55:40.037Z,3.99
2017-11-22T02:56:46.264Z,3.99
2017-11-22T02:57:52.475Z,3.99
2017-11-22T02:58:58.673Z,3.99
2017-11-22T03:00:04.910Z,4.00
2017-11-22T03:01:11.723Z,3.99
2017-11-22T03:02:17.485Z,4.00
2017-11-22T03:03:24.050Z,3.99
2017-11-22T03:04:30.044Z,3.99
2017-11-22T03:05:36.043Z,4.00
2017-11-22T03:06:42.706Z,3.99
2017-11-22T03:07:48.966Z,3.99
2017-11-22T03:08:54.673Z,3.99
2017-11-22T03:10:01.404Z,3.99
2017-11-22T03:11:07.189Z,3.99
2017-11-22T03:12:13.228Z,3.99
2017-11-22T03:13:19.435Z,3.99
2017-11-22T03:14:25.844Z,3.99
2017-11-22T03:15:32.431Z,3.99
2017-11-22T03:16:38.245Z,3.99
2017-11-22T03:17:44.285Z,3.99
2017-11-22T03:18:51.165Z,3.99
2017-11-22T03:19:56.746Z,3.99
2017-11-22T03:21:02.996Z,3.99
2017-11-22T03:22:10.161Z,3.99
2017-11-22T03:23:15.900Z,3.99
2017-11-22T03:24:21.637Z,3.99
2017-11-22T03:25:28.316Z,3.99
2017-11-22T03:26:34.041Z,3.99
2017-11-22T03:27:40.809Z,3.99
2017-11-22T03:28:46.455Z,3.99
2017-11-22T03:29:52.955Z,3.99
2017-11-22T03:30:58.966Z,3.99
2017-11-22T03:32:05.178Z,3.99
2017-11-22T03:33:11.299Z,3.99
2017-11-22T03:34:18.031Z,3.99
2017-11-22T03:35:24.471Z,3.99
2017-11-22T03:36:30.603Z,3.99
2017-11-22T03:37:36.373Z,3.99
2017-11-22T03:38:42.937Z,3.99
2017-11-22T03:39:49.204Z,3.99
2017-11-22T03:40:55.414Z,3.99
2017-11-22T03:42:01.017Z,3.99
2017-11-22T03:43:07.410Z,3.99
2017-11-22T03:44:13.488Z,3.99
2017-11-22T03:45:19.755Z,3.99
2017-11-22T03:46:25.901Z,3.99
2017-11-22T03:47:32.142Z,3.99
2017-11-22T03:48:38.475Z,3.99
2017-11-22T03:49:44.549Z,3.99
2017-11-22T03:50:50.877Z,3.99
2017-11-22T03:51:57.473Z,3.99
2017-11-22T03:53:03.719Z,3.99
2017-11-22T03:54:09.534Z,3.99
2017-11-22T03:55:16.421Z,3.99
2017-11-22T03:56:21.939Z,3.99
2017-11-22T03:57:28.013Z,3.99
2017-11-22T03:58:34.289Z,3.99
2017-11-22T03:59:40.540Z,3.99
2017-11-22T04:00:46.675Z,3.99
2017-11-22T04:01:52.937Z,3.99
2017-11-22T04:02:59.608Z,3.99
2017-11-22T04:04:05.314Z,3.99
2017-11-22T04:05:11.617Z,3.99
2017-11-22T04:06:17.736Z,3.99
2017-11-22T04:07:24.066Z,3.99
2017-11-22T04:08:30.659Z,3.99
2017-11-22T04:09:36.400Z,3.99
2017-11-22T04:10:43.087Z,3.99
2017-11-22T04:11:50.344Z,3.99
2017-11-22T04:12:55.060Z,3.99
2017-11-22T04:14:01.791Z,3.99
2017-11-22T04:15:08.228Z,3.99
2017-11-22T04:16:13.618Z,3.99
2017-11-22T04:17:19.870Z,3.99
2017-11-22T04:18:26.538Z,3.99
2017-11-22T04:19:32.252Z,3.99
2017-11-22T04:20:38.505Z,3.99
2017-11-22T04:21:44.680Z,3.99
2017-11-22T04:22:51.444Z,3.99
2017-11-22T04:23:57.091Z,3.99
2017-11-22T04:25:03.851Z,3.99
2017-11-22T04:26:09.660Z,3.99
2017-11-22T04:27:16.399Z,3.99
2017-11-22T04:28:21.990Z,3.99
2017-11-22T04:29:28.247Z,3.99
2017-11-22T04:30:34.653Z,3.99
2017-11-22T04:31:40.724Z,3.99
2017-11-22T04:32:46.906Z,3.99
2017-11-22T04:33:53.642Z,3.99
2017-11-22T04:35:00.018Z,3.99
2017-11-22T04:36:06.054Z,3.99
2017-11-22T04:37:11.790Z,3.99
2017-11-22T04:38:18.379Z,3.99
2017-11-22T04:39:24.702Z,3.99
2017-11-22T04:40:30.898Z,3.99
2017-11-22T04:41:36.596Z,3.99
2017-11-22T04:42:42.777Z,3.99
2017-11-22T04:43:49.515Z,3.99
2017-11-22T04:44:55.782Z,3.99
2017-11-22T04:46:01.337Z,3.99
2017-11-22T04:47:07.568Z,3.99
2017-11-22T04:48:14.352Z,3.99
2017-11-22T04:49:20.500Z,3.99
2017-11-22T04:50:26.226Z,3.99
2017-11-22T04:51:32.447Z,3.99
2017-11-22T04:52:39.164Z,3.99
2017-11-22T04:53:44.978Z,3.99
2017-11-22T04:54:51.058Z,3.99
2017-11-22T04:55:57.563Z,3.99
2017-11-22T04:57:03.971Z,3.99
2017-11-22T04:58:09.689Z,3.99
2017-11-22T04:59:15.968Z,3.99
2017-11-22T05:00:22.306Z,3.99
2017-11-22T05:01:28.374Z,3.99
2017-11-22T05:02:35.115Z,3.99
2017-11-22T05:03:40.758Z,3.99
2017-11-22T05:04:46.967Z,3.99
2017-11-22T05:05:53.207Z,3.99
2017-11-22T05:06:59.434Z,3.99
2017-11-22T05:08:05.602Z,3.99
2017-11-22T05:09:11.817Z,3.99
2017-11-22T05:10:19.041Z,3.99
2017-11-22T05:11:24.248Z,3.99
2017-11-22T05:12:31.012Z,3.99
2017-11-22T05:13:36.826Z,3.99
2017-11-22T05:14:42.875Z,3.99
2017-11-22T05:15:49.183Z,3.99
2017-11-22T05:16:55.411Z,3.99
2017-11-22T05:18:02.151Z,3.99
2017-11-22T05:19:07.727Z,3.99
2017-11-22T05:20:13.968Z,3.99
2017-11-22T05:21:20.223Z,3.99
2017-11-22T05:22:26.575Z,3.99
2017-11-22T05:23:33.212Z,3.99
2017-11-22T05:24:38.954Z,3.99
2017-11-22T05:25:45.543Z,3.99
2017-11-22T05:26:51.227Z,3.99
2017-11-22T05:27:57.647Z,3.99
2017-11-22T05:29:03.691Z,3.99
2017-11-22T05:30:09.948Z,3.99
2017-11-22T05:31:16.105Z,3.99
2017-11-22T05:32:22.304Z,3.99
2017-11-22T05:33:28.510Z,3.99
2017-11-22T05:34:34.746Z,3.99
2017-11-22T05:35:41.036Z,3.99
2017-11-22T05:36:47.672Z,3.99
2017-11-22T05:37:53.496Z,3.99
2017-11-22T05:38:59.751Z,3.99
2017-11-22T05:40:06.400Z,3.99
2017-11-22T05:41:12.011Z,3.99
2017-11-22T05:42:18.224Z,3.99
2017-11-22T05:43:24.475Z,3.99
2017-11-22T05:44:30.731Z,3.99
2017-11-22T05:45:37.097Z,3.99
2017-11-22T05:46:43.380Z,3.99
2017-11-22T05:47:49.872Z,3.99
2017-11-22T05:48:55.533Z,3.99
2017-11-22T05:50:01.861Z,3.99
2017-11-22T05:51:08.122Z,3.99
2017-11-22T05:52:14.153Z,3.99
2017-11-22T05:53:20.970Z,3.99
2017-11-22T05:54:26.608Z,3.99
2017-11-22T05:55:33.436Z,3.99
2017-11-22T05:56:39.284Z,3.99
2017-11-22T05:57:45.259Z,3.99
2017-11-22T05:58:51.510Z,3.99
2017-11-22T05:59:57.668Z,3.99
2017-11-22T06:01:03.893Z,3.99
2017-11-22T06:02:10.189Z,3.99
2017-11-22T06:03:16.302Z,3.99
2017-11-22T06:04:23.086Z,3.99
2017-11-22T06:05:28.899Z,3.99
2017-11-22T06:06:35.275Z,3.99
2017-11-22T06:07:41.179Z,3.99
2017-11-22T06:08:47.488Z,3.99
2017-11-22T06:09:53.712Z,3.99
2017-11-22T06:11:00.402Z,3.99
2017-11-22T06:12:06.069Z,3.99
2017-11-22T06:13:12.880Z,3.99
2017-11-22T06:14:18.550Z,3.99
2017-11-22T06:15:24.774Z,3.99
2017-11-22T06:16:31.543Z,3.99
2017-11-22T06:17:37.500Z,3.99
2017-11-22T06:18:43.363Z,3.99
2017-11-22T06:19:49.692Z,3.99
2017-11-22T06:20:56.040Z,3.99
2017-11-22T06:22:02.557Z,3.99
2017-11-22T06:23:08.789Z,3.99
2017-11-22T06:24:14.425Z,3.99
2017-11-22T06:25:21.260Z,3.99
2017-11-22T06:26:26.858Z,3.99
2017-11-22T06:27:33.107Z,3.99
2017-11-22T06:28:39.919Z,3.99
2017-11-22T06:29:46.102Z,3.99
2017-11-22T06:30:51.725Z,3.99
2017-11-22T06:31:57.962Z,3.99
2017-11-22T06:33:04.831Z,3.99
2017-11-22T06:34:10.910Z,3.99
2017-11-22T06:35:16.654Z,3.99
2017-11-22T06:36:23.317Z,3.99
2017-11-22T06:37:29.237Z,3.99
2017-11-22T06:38:35.312Z,3.99
2017-11-22T06:39:41.459Z,3.99
2017-11-22T06:40:47.716Z,3.99
2017-11-22T06:41:54.493Z,3.99
2017-11-22T06:43:00.813Z,3.99
2017-11-22T06:44:06.329Z,3.99
2017-11-22T06:45:12.698Z,3.99
2017-11-22T06:46:18.780Z,3.99
2017-11-22T06:47:25.104Z,3.99
2017-11-22T06:48:31.247Z,3.99
2017-11-22T06:49:37.441Z,3.99
2017-11-22T06:50:43.765Z,3.99
2017-11-22T06:51:50.016Z,3.99
2017-11-22T06:52:56.332Z,3.99
2017-11-22T06:54:02.418Z,3.99
2017-11-22T06:55:09.117Z,3.99
2017-11-22T06:56:14.761Z,3.99
2017-11-22T06:57:21.081Z,3.99
2017-11-22T06:58:27.277Z,3.99
2017-11-22T06:59:33.427Z,3.99
2017-11-22T07:00:40.278Z,3.99
2017-11-22T07:01:46.436Z,3.99
2017-11-22T07:02:52.631Z,3.99
2017-11-22T07:03:58.327Z,3.99
2017-11-22T07:05:05.161Z,3.99
2017-11-22T07:06:11.246Z,3.99
2017-11-22T07:07:17.495Z,3.99
2017-11-22T07:08:23.500Z,3.99
2017-11-22T07:09:29.487Z,3.99
2017-11-22T07:10:35.713Z,3.99
2017-11-22T07:11:42.401Z,3.99
2017-11-22T07:12:48.563Z,3.99
2017-11-22T07:13:54.328Z,3.99
2017-11-22T07:15:01.065Z,3.99
2017-11-22T07:16:07.325Z,3.99
2017-11-22T07:17:12.963Z,3.99
2017-11-22T07:18:19.392Z,3.99
2017-11-22T07:19:25.465Z,3.99
2017-11-22T07:20:31.788Z,3.99
2017-11-22T07:21:38.453Z,3.99
2017-11-22T07:22:44.636Z,3.99
2017-11-22T07:23:50.630Z,3.99
2017-11-22T07:24:57.024Z,3.99
2017-11-22T07:26:03.400Z,3.99
2017-11-22T07:27:08.973Z,3.99
2017-11-22T07:28:15.377Z,3.99
2017-11-22T07:29:21.608Z,3.99
2017-11-22T07:30:29.191Z,3.99
2017-11-22T07:31:34.538Z,3.99
2017-11-22T07:32:40.819Z,3.99
2017-11-22T07:33:46.377Z,3.99
2017-11-22T07:34:52.614Z,3.99
2017-11-22T07:35:58.865Z,3.99
2017-11-22T07:37:05.736Z,3.99
2017-11-22T07:38:11.438Z,3.99
2017-11-22T07:39:18.283Z,3.99
2017-11-22T07:40:23.900Z,3.99
2017-11-22T07:41:30.614Z,3.99
2017-11-22T07:42:36.209Z,3.99
2017-11-22T07:43:42.448Z,3.99
2017-11-22T07:44:49.206Z,3.99
2017-11-22T07:45:54.936Z,3.99
2017-11-22T07:47:01.186Z,3.99
2017-11-22T07:48:07.385Z,3.99
2017-11-22T07:49:13.724Z,3.99
2017-11-22T07:50:20.442Z,3.99
2017-11-22T07:51:26.109Z,3.99
2017-11-22T07:52:32.326Z,3.99
2017-11-22T07:53:38.611Z,3.99
2017-11-22T07:54:44.934Z,3.99
2017-11-22T07:55:51.713Z,3.99
2017-11-22T07:56:57.381Z,3.99
2017-11-22T07:58:04.207Z,3.99
2017-11-22T07:59:10.299Z,3.99
2017-11-22T08:00:16.554Z,3.99
2017-11-22T08:01:22.390Z,3.99
2017-11-22T08:02:29.107Z,3.99
2017-11-22T08:03:34.860Z,3.99
2017-11-22T08:04:41.587Z,3.99
2017-11-22T08:05:47.890Z,3.99
2017-11-22T08:06:53.553Z,3.99
2017-11-22T08:07:59.878Z,3.99
2017-11-22T08:09:06.056Z,3.99
2017-11-22T08:10:12.335Z,3.99
2017-11-22T08:11:19.159Z,3.99
2017-11-22T08:12:25.403Z,3.99
2017-11-22T08:13:31.015Z,3.99
2017-11-22T08:14:37.836Z,3.99
2017-11-22T08:15:43.540Z,3.99
2017-11-22T08:16:49.775Z,3.99
2017-11-22T08:17:56.033Z,3.99
2017-11-22T08:19:02.783Z,3.99
2017-11-22T08:20:08.889Z,3.99
2017-11-22T08:21:14.805Z,3.99
2017-11-22T08:22:21.177Z,3.99
2017-11-22T08:23:27.310Z,3.99
2017-11-22T08:24:33.570Z,3.99
2017-11-22T08:25:39.877Z,4.00
2017-11-22T08:26:46.704Z,4.00
2017-11-22T08:27:52.544Z,4.00
2017-11-22T08:28:59.132Z,3.99
2017-11-22T08:30:04.908Z,3.99
2017-11-22T08:31:11.412Z,3.99
2017-11-22T08:32:17.422Z,3.99
2017-11-22T08:33:23.705Z,3.99
2017-11-22T08:34:30.069Z,3.99
2017-11-22T08:35:36.770Z,4.00
2017-11-22T08:36:43.091Z,4.00
2017-11-22T08:37:48.851Z,4.00
2017-11-22T08:38:55.032Z,3.99
2017-11-22T08:40:01.946Z,3.99
2017-11-22T08:41:07.630Z,3.99
2017-11-22T08:42:13.839Z,3.99
2017-11-22T08:43:20.231Z,4.00
2017-11-22T08:44:26.965Z,4.00
2017-11-22T08:45:33.316Z,4.00
2017-11-22T08:46:38.960Z,4.00
2017-11-22T08:47:45.199Z,4.00
2017-11-22T08:48:51.563Z,4.00
2017-11-22T08:49:57.850Z,4.00
2017-11-22T08:51:04.097Z,4.00
2017-11-22T08:52:10.315Z,4.00
2017-11-22T08:53:16.628Z,4.00
2017-11-22T08:54:23.039Z,4.00
2017-11-22T08:55:29.827Z,4.00
2017-11-22T08:56:35.469Z,4.00
2017-11-22T08:57:41.981Z,4.00
2017-11-22T08:58:48.157Z,4.00
2017-11-22T08:59:54.337Z,4.00
2017-11-22T09:01:00.693Z,4.00
2017-11-22T09:02:06.871Z,4.00
2017-11-22T09:03:13.164Z,4.00
2017-11-22T09:04:19.491Z,4.00
2017-11-22T09:05:25.884Z,4.00
2017-11-22T09:06:32.037Z,4.00
2017-11-22T09:07:38.840Z,4.00
2017-11-22T09:08:46.181Z,4.00
2017-11-22T09:09:50.988Z,4.00
2017-11-22T09:10:57.877Z,4.00
2017-11-22T09:12:03.497Z,4.00
2017-11-22T09:13:09.774Z,4.01
2017-11-22T09:14:16.093Z,4.01
2017-11-22T09:15:22.399Z,4.01
2017-11-22T09:16:28.774Z,4.01
2017-11-22T09:17:35.004Z,4.01
2017-11-22T09:18:41.848Z,4.01
2017-11-22T09:19:47.621Z,4.01
2017-11-22T09:20:53.832Z,4.01
2017-11-22T09:22:00.665Z,4.01
2017-11-22T09:23:07.064Z,4.01
2017-11-22T09:24:12.739Z,4.01
2017-11-22T09:25:19.022Z,4.01
2017-11-22T09:26:25.869Z,4.01
2017-11-22T09:27:31.894Z,4.01
2017-11-22T09:28:37.914Z,4.01
2017-11-22T09:29:44.723Z,4.02
2017-11-22T09:30:51.094Z,4.02
2017-11-22T09:31:56.863Z,4.01
2017-11-22T09:33:03.253Z,4.01
2017-11-22T09:34:09.403Z,4.02
2017-11-22T09:35:15.695Z,4.02
2017-11-22T09:36:21.987Z,4.02
2017-11-22T09:37:28.835Z,4.02
2017-11-22T09:38:34.641Z,4.02
2017-11-22T09:39:40.866Z,4.02
2017-11-22T09:40:47.168Z,4.02
2017-11-22T09:41:54.275Z,4.02
2017-11-22T09:43:00.281Z,4.02
2017-11-22T09:44:06.191Z,4.02
2017-11-22T09:45:12.524Z,4.02
2017-11-22T09:46:19.211Z,4.02
2017-11-22T09:47:25.675Z,4.02
2017-11-22T09:48:31.325Z,4.02
2017-11-22T09:49:37.518Z,4.02
2017-11-22T09:50:43.854Z,4.02
2017-11-22T09:51:50.319Z,4.02
2017-11-22T09:52:56.991Z,4.03
2017-11-22T09:54:02.673Z,4.03
2017-11-22T09:55:08.972Z,4.03
2017-11-22T09:56:15.328Z,4.03
2017-11-22T09:57:21.569Z,4.03
2017-11-22T09:58:28.033Z,4.03
2017-11-22T09:59:34.390Z,4.02
2017-11-22T10:00:40.511Z,4.03
2017-11-22T10:01:46.748Z,4.03
2017-11-22T10:02:52.978Z,4.03
2017-11-22T10:03:59.268Z,4.03
2017-11-22T10:05:05.570Z,4.03
2017-11-22T10:06:11.844Z,4.03
2017-11-22T10:07:18.187Z,4.03
2017-11-22T10:08:24.521Z,4.03
2017-11-22T10:09:31.730Z,4.03
2017-11-22T10:10:36.990Z,4.03
2017-11-22T10:11:43.388Z,4.03
2017-11-22T10:12:49.659Z,4.04
2017-11-22T10:13:55.859Z,4.04
2017-11-22T10:15:02.314Z,4.04
2017-11-22T10:16:08.435Z,4.04
2017-11-22T10:17:14.855Z,4.04
2017-11-22T10:18:21.520Z,4.04
2017-11-22T10:19:27.367Z,4.04
2017-11-22T10:20:33.619Z,4.04
2017-11-22T10:21:40.452Z,4.04
2017-11-22T10:22:47.671Z,4.04
2017-11-22T10:23:52.481Z,4.04
2017-11-22T10:24:59.314Z,4.05
2017-11-22T10:26:05.086Z,4.04
2017-11-22T10:27:12.034Z,4.05
2017-11-22T10:28:17.671Z,4.05
2017-11-22T10:29:23.950Z,4.05
2017-11-22T10:30:31.169Z,4.05
2017-11-22T10:31:37.048Z,4.05
2017-11-22T10:32:42.763Z,4.05
2017-11-22T10:33:49.071Z,4.05
2017-11-22T10:34:55.352Z,4.05
2017-11-22T10:36:01.682Z,4.05
2017-11-22T10:37:08.002Z,4.05
2017-11-22T10:38:14.247Z,4.05
2017-11-22T10:39:20.640Z,4.05
2017-11-22T10:40:26.904Z,4.05
2017-11-22T10:41:33.110Z,4.06
2017-11-22T10:42:39.538Z,4.06
2017-11-22T10:43:45.833Z,4.05
2017-11-22T10:44:52.115Z,4.05
2017-11-22T10:45:58.439Z,4.05
2017-11-22T10:47:05.183Z,4.06
2017-11-22T10:48:10.979Z,4.05
2017-11-22T10:49:17.849Z,4.05
2017-11-22T10:50:23.573Z,4.06
2017-11-22T10:51:30.467Z,4.07
2017-11-22T10:52:36.738Z,4.07
2017-11-22T10:53:43.138Z,4.07
2017-11-22T10:54:49.496Z,4.07
2017-11-22T10:55:55.165Z,4.07
2017-11-22T10:57:01.467Z,4.07
2017-11-22T10:58:07.887Z,4.07
2017-11-22T10:59:14.716Z,4.07
2017-11-22T11:00:20.445Z,4.06
2017-11-22T11:01:26.769Z,4.07
2017-11-22T11:02:33.122Z,4.06
2017-11-22T11:03:40.036Z,4.06
2017-11-22T11:04:45.766Z,4.06
2017-11-22T11:05:53.096Z,4.06
2017-11-22T11:06:58.433Z,4.06
2017-11-22T11:08:05.288Z,4.06
2017-11-22T11:09:11.718Z,4.07
2017-11-22T11:10:17.445Z,4.07
2017-11-22T11:11:23.797Z,4.06
2017-11-22T11:12:30.721Z,4.06
2017-11-22T11:13:36.512Z,4.06
2017-11-22T11:14:42.804Z,4.06
2017-11-22T11:15:49.229Z,4.06
2017-11-22T11:16:56.045Z,4.06
2017-11-22T11:18:01.850Z,4.06
2017-11-22T11:19:08.180Z,4.06
2017-11-22T11:20:14.526Z,4.06
2017-11-22T11:21:22.377Z,4.06
2017-11-22T11:22:27.262Z,4.06
2017-11-22T11:23:34.166Z,4.06
2017-11-22T11:24:40.593Z,4.06
2017-11-22T11:25:46.367Z,4.06
2017-11-22T11:26:53.823Z,4.07
2017-11-22T11:27:59.044Z,4.06
2017-11-22T11:29:05.379Z,4.07
2017-11-22T11:30:11.753Z,4.06
2017-11-22T11:31:18.660Z,4.07
2017-11-22T11:32:24.464Z,4.07
2017-11-22T11:33:30.853Z,4.07
2017-11-22T11:34:37.730Z,4.07
2017-11-22T11:35:43.574Z,4.07
2017-11-22T11:36:49.942Z,4.07
2017-11-22T11:37:56.409Z,4.07
2017-11-22T11:39:03.332Z,4.07
2017-11-22T11:40:09.093Z,4.07
2017-11-22T11:41:15.454Z,4.07
2017-11-22T11:42:21.823Z,4.07
2017-11-22T11:43:28.242Z,4.07
2017-11-22T11:44:34.556Z,4.07
2017-11-22T11:45:40.930Z,4.07
2017-11-22T11:46:47.332Z,4.07
2017-11-22T11:47:54.112Z,4.07
2017-11-22T11:49:00.156Z,4.07
2017-11-22T11:50:06.454Z,4.07
2017-11-22T11:51:12.938Z,4.07
2017-11-22T11:52:19.227Z,4.07
2017-11-22T11:53:26.598Z,4.07
2017-11-22T11:54:31.977Z,4.07
2017-11-22T11:55:38.355Z,4.07
2017-11-22T11:56:44.760Z,4.07
2017-11-22T11:57:51.228Z,4.07
2017-11-22T11:58:58.072Z,4.07
2017-11-22T12:00:03.926Z,4.07
2017-11-22T12:01:10.294Z,4.07
2017-11-22T12:02:16.800Z,4.08
2017-11-22T12:03:23.787Z,4.08
2017-11-22T12:04:29.475Z,4.08
2017-11-22T12:05:36.869Z,4.08
2017-11-22T12:06:42.359Z,4.08
2017-11-22T12:07:49.406Z,4.09
2017-11-22T12:08:55.117Z,4.08
2017-11-22T12:10:01.540Z,4.09
2017-11-22T12:11:07.947Z,4.09
2017-11-22T12:12:14.754Z,4.08
2017-11-22T12:13:20.917Z,4.08
2017-11-22T12:14:27.330Z,4.08
2017-11-22T12:15:33.681Z,4.08
2017-11-22T12:16:40.115Z,4.08
2017-11-22T12:17:46.887Z,4.08
2017-11-22T12:18:53.200Z,4.08
2017-11-22T12:19:59.592Z,4.08
2017-11-22T12:21:06.490Z,4.08
2017-11-22T12:22:12.362Z,4.08
2017-11-22T12:23:18.746Z,4.08
2017-11-22T12:24:25.763Z,4.08
2017-11-22T12:25:31.735Z,4.08
2017-11-22T12:26:38.206Z,4.09
2017-11-22T12:27:44.768Z,4.09
2017-11-22T12:28:50.944Z,4.09
2017-11-22T12:31:03.870Z,4.09
2017-11-22T12:32:10.286Z,4.09
2017-11-22T12:33:16.723Z,4.09
2017-11-22T12:34:23.281Z,4.09
2017-11-22T12:36:36.705Z,4.09
2017-11-22T12:39:55.634Z,4.09
2017-11-22T12:41:02.227Z,4.10
2017-11-22T12:42:08.869Z,4.10
2017-11-22T12:43:14.894Z,4.09
2017-11-22T12:44:21.458Z,4.10
2017-11-22T12:45:27.815Z,4.10
2017-11-22T12:46:34.350Z,4.10
2017-11-22T12:47:40.734Z,4.10
2017-11-22T12:48:47.525Z,4.10
2017-11-22T12:49:53.713Z,4.10
2017-11-22T12:51:00.218Z,4.10
2017-11-22T12:52:07.209Z,4.10
2017-11-22T12:54:19.686Z,4.10
2017-11-22T12:55:26.518Z,4.10
2017-11-22T12:56:32.884Z,4.10
2017-11-22T12:57:39.644Z,4.10
2017-11-22T12:58:45.599Z,4.10
2017-11-22T12:59:52.233Z,4.10
2017-11-22T13:02:05.031Z,4.10
2017-11-22T13:03:11.862Z,4.10
2017-11-22T13:06:31.093Z,4.10
2017-11-22T13:07:37.976Z,4.10
2017-11-22T13:08:44.177Z,4.10
2017-11-22T13:09:50.483Z,4.10
2017-11-22T13:10:57.310Z,4.10
2017-11-22T13:12:04.501Z,4.10
2017-11-22T13:13:10.489Z,4.10
2017-11-22T13:14:16.531Z,4.10
2017-11-22T13:15:23.186Z,4.10
2017-11-22T13:16:29.719Z,4.10
2017-11-22T13:17:37.028Z,4.10
2017-11-22T13:18:42.751Z,4.10
2017-11-22T13:19:50.890Z,4.10
2017-11-22T13:22:02.064Z,4.10
2017-11-22T13:25:21.801Z,4.10
2017-11-22T13:26:29.812Z,4.10
2017-11-22T13:27:35.432Z,4.10
2017-11-22T13:28:41.111Z,4.10
2017-11-22T13:31:02.911Z,4.10
2017-11-22T13:32:11.037Z,4.10
2017-11-22T13:35:40.428Z,4.10
2017-11-22T13:36:46.961Z,4.10
2017-11-22T13:39:08.368Z,4.10
2017-11-22T13:42:40.568Z,4.11
2017-11-22T13:43:45.783Z,4.11
2017-11-22T13:44:51.988Z,4.11
2017-11-22T13:45:58.689Z,4.11
2017-11-22T13:47:05.052Z,4.11
2017-11-22T13:48:11.199Z,4.10
2017-11-22T13:49:17.826Z,4.11
2017-11-22T13:51:30.662Z,4.11
2017-11-22T13:52:37.593Z,4.11
2017-11-22T13:53:43.910Z,4.11
2017-11-22T13:54:50.067Z,4.11
2017-11-22T13:55:57.244Z,4.11
2017-11-22T13:57:03.390Z,4.11
2017-11-22T13:58:10.336Z,4.11
2017-11-22T13:59:15.969Z,4.11
2017-11-22T14:00:22.472Z,4.11
2017-11-22T14:01:28.903Z,4.11
2017-11-22T14:03:41.736Z,4.11
2017-11-22T14:04:48.232Z,4.11
2017-11-22T14:07:01.414Z,4.11
2017-11-22T14:08:08.698Z,4.11
2017-11-22T14:09:14.175Z,4.11
2017-11-22T14:10:20.830Z,4.11
2017-11-22T14:12:34.659Z,4.11
2017-11-22T14:13:40.767Z,4.11
2017-11-22T14:14:47.278Z,4.11
2017-11-22T14:15:53.245Z,4.11
2017-11-22T14:16:59.486Z,4.11
2017-11-22T14:18:06.194Z,4.11
2017-11-22T14:19:12.634Z,4.11
2017-11-22T14:20:19.303Z,4.11
2017-11-22T14:23:38.345Z,4.11
2017-11-22T14:24:46.582Z,4.11
2017-11-22T14:25:51.425Z,4.11
2017-11-22T14:28:04.753Z,4.11
2017-11-22T14:29:10.746Z,4.11
2017-11-22T14:30:17.581Z,4.11
2017-11-22T14:31:23.742Z,4.11
2017-11-22T14:33:36.919Z,4.11
2017-11-22T14:34:42.973Z,4.11
2017-11-22T14:35:49.931Z,4.11
2017-11-22T14:38:02.872Z,4.10
2017-11-22T14:40:15.152Z,4.10
2017-11-22T14:42:28.278Z,4.10
2017-11-22T14:45:49.251Z,4.10
2017-11-22T14:46:54.459Z,4.10
2017-11-22T14:50:13.363Z,4.10
2017-11-22T14:51:23.533Z,4.10
2017-11-22T14:53:41.499Z,4.10
2017-11-22T14:54:47.217Z,4.10
2017-11-22T14:55:53.790Z,4.10
2017-11-22T14:57:00.741Z,4.10
2017-11-22T14:58:06.996Z,4.10
2017-11-22T15:02:33.326Z,4.10
2017-11-22T15:03:38.809Z,4.10
2017-11-22T15:04:45.230Z,4.10
2017-11-22T15:08:04.743Z,4.10
2017-11-22T15:09:10.585Z,4.10
2017-11-22T15:10:17.487Z,4.10
2017-11-22T15:11:23.898Z,4.10
2017-11-22T15:12:31.161Z,4.10
2017-11-22T15:13:37.896Z,4.10
2017-11-22T15:14:42.463Z,4.10
2017-11-22T15:15:49.052Z,4.10
2017-11-22T15:19:08.616Z,4.10
2017-11-22T15:20:14.257Z,4.10
2017-11-22T15:21:20.600Z,4.10
2017-11-22T15:22:27.270Z,4.10
2017-11-22T15:23:33.121Z,4.10
2017-11-22T15:24:39.477Z,4.10
2017-11-22T15:25:45.901Z,4.10
2017-11-22T15:26:53.077Z,4.10